createdAt,value
2017-09-24T00:00:43.244Z,13.40
2017-09-24T00:03:09.394Z,13.40
2017-09-24T00:05:35.576Z,13.30
2017-09-24T00:08:01.737Z,13.10
2017-09-24T00:10:28.652Z,13.20
2017-09-24T00:12:54.813Z,13.20
2017-09-24T00:15:21.004Z,13.20
2017-09-24T00:17:47.188Z,13.30
2017-09-24T00:20:14.152Z,13.50
2017-09-24T00:22:40.309Z,13.40
2017-09-24T00:25:06.531Z,13.50
2017-09-24T00:27:32.705Z,13.50
2017-09-24T00:29:58.935Z,13.50
2017-09-24T00:32:25.121Z,13.40
2017-09-24T00:34:58.781Z,13.40
2017-09-24T00:37:24.971Z,13.30
2017-09-24T00:39:51.167Z,13.10
2017-09-24T00:42:17.395Z,13.20
2017-09-24T00:44:43.565Z,13.30
2017-09-24T00:47:09.769Z,13.20
2017-09-24T00:49:36.685Z,13.30
2017-09-24T00:52:02.884Z,13.20
2017-09-24T00:54:29.061Z,13.30
2017-09-24T00:56:55.258Z,13.30
2017-09-24T00:59:21.990Z,13.20
2017-09-24T01:01:48.280Z,13.20
2017-09-24T01:04:15.176Z,13.10
2017-09-24T01:06:42.099Z,13.00
2017-09-24T01:09:08.309Z,13.00
2017-09-24T01:11:34.492Z,13.00
2017-09-24T01:14:00.731Z,12.80
2017-09-24T01:16:26.927Z,12.90
2017-09-24T01:18:53.111Z,12.90
2017-09-24T01:21:20.113Z,12.90
2017-09-24T01:23:46.332Z,12.80
2017-09-24T01:26:12.543Z,12.80
2017-09-24T01:28:38.721Z,12.80
2017-09-24T01:31:04.970Z,12.70
2017-09-24T01:33:31.148Z,12.70
2017-09-24T01:35:57.352Z,12.70
2017-09-24T01:38:23.539Z,12.80
2017-09-24T01:40:50.496Z,12.80
2017-09-24T01:43:16.669Z,12.80
2017-09-24T01:45:42.891Z,12.80
2017-09-24T01:48:09.090Z,12.80
2017-09-24T01:50:35.281Z,12.90
2017-09-24T01:53:01.479Z,12.90
2017-09-24T01:55:27.667Z,12.90
2017-09-24T01:57:54.626Z,12.80
2017-09-24T02:00:20.824Z,12.80
2017-09-24T02:02:47.131Z,12.90
2017-09-24T02:05:14.047Z,12.90
2017-09-24T02:07:40.221Z,12.90
2017-09-24T02:10:06.391Z,13.00
2017-09-24T02:12:32.691Z,13.00
2017-09-24T02:14:58.876Z,13.00
2017-09-24T02:17:25.061Z,12.90
2017-09-24T02:19:51.259Z,12.80
2017-09-24T02:22:17.444Z,12.90
2017-09-24T02:24:43.607Z,12.90
2017-09-24T02:27:09.803Z,12.90
2017-09-24T02:29:35.959Z,13.00
2017-09-24T02:32:02.135Z,12.90
2017-09-24T02:34:28.292Z,13.00
2017-09-24T02:36:54.480Z,13.00
2017-09-24T02:39:20.652Z,12.80
2017-09-24T02:41:47.577Z,12.80
2017-09-24T02:44:14.496Z,12.80
2017-09-24T02:46:40.681Z,12.80
2017-09-24T02:49:06.855Z,12.90
2017-09-24T02:51:33.054Z,12.80
2017-09-24T02:53:59.989Z,12.80
2017-09-24T02:56:26.905Z,12.80
2017-09-24T02:58:53.081Z,12.70
2017-09-24T03:01:19.299Z,12.80
2017-09-24T03:03:45.460Z,12.80
2017-09-24T03:06:12.384Z,12.90
2017-09-24T03:08:39.331Z,12.90
2017-09-24T03:11:06.260Z,12.90
2017-09-24T03:13:33.160Z,12.90
2017-09-24T03:15:59.360Z,12.90
2017-09-24T03:18:25.516Z,12.90
2017-09-24T03:20:52.468Z,12.90
2017-09-24T03:23:18.647Z,12.90
2017-09-24T03:25:44.835Z,12.90
2017-09-24T03:28:11.002Z,12.90
2017-09-24T03:30:37.185Z,12.90
2017-09-24T03:33:03.366Z,13.00
2017-09-24T03:35:30.276Z,13.00
2017-09-24T03:37:56.819Z,13.00
2017-09-24T03:40:22.996Z,13.00
2017-09-24T03:42:49.171Z,13.00
2017-09-24T03:45:15.332Z,13.00
2017-09-24T03:47:41.607Z,12.80
2017-09-24T03:50:07.771Z,12.80
2017-09-24T03:52:33.943Z,12.80
2017-09-24T03:55:00.875Z,12.80
2017-09-24T03:57:27.029Z,12.80
2017-09-24T03:59:53.217Z,12.90
2017-09-24T04:02:20.111Z,12.80
2017-09-24T04:04:46.304Z,12.80
2017-09-24T04:07:12.495Z,12.80
2017-09-24T04:09:38.691Z,12.90
2017-09-24T04:12:04.860Z,12.90
2017-09-24T04:14:31.052Z,12.90
2017-09-24T04:16:57.224Z,12.90
2017-09-24T04:19:24.163Z,12.80
2017-09-24T04:21:51.057Z,12.90
2017-09-24T04:24:17.257Z,12.90
2017-09-24T04:26:43.413Z,12.90
2017-09-24T04:29:10.420Z,12.90
2017-09-24T04:31:36.588Z,12.90
2017-09-24T04:34:02.773Z,13.00
2017-09-24T04:36:29.668Z,13.10
2017-09-24T04:38:55.883Z,13.10
2017-09-24T04:41:22.068Z,13.10
2017-09-24T04:43:48.268Z,13.10
2017-09-24T04:46:14.427Z,13.10
2017-09-24T04:48:40.617Z,13.10
2017-09-24T04:51:06.811Z,13.00
2017-09-24T04:53:33.024Z,12.90
2017-09-24T04:55:59.260Z,12.90
2017-09-24T04:58:25.416Z,13.00
2017-09-24T05:00:51.608Z,12.90
2017-09-24T05:03:17.770Z,12.80
2017-09-24T05:05:43.948Z,12.90
2017-09-24T05:08:10.111Z,12.80
2017-09-24T05:10:36.290Z,12.80
2017-09-24T05:13:03.187Z,12.50
2017-09-24T05:15:29.403Z,12.50
2017-09-24T05:17:55.585Z,12.30
2017-09-24T05:20:21.761Z,12.30
2017-09-24T05:22:47.949Z,12.30
2017-09-24T05:25:14.107Z,12.40
2017-09-24T05:27:41.052Z,12.50
2017-09-24T05:30:07.280Z,12.40
2017-09-24T05:32:33.435Z,12.50
2017-09-24T05:34:59.616Z,12.50
2017-09-24T05:37:25.801Z,12.60
2017-09-24T05:39:52.028Z,12.60
2017-09-24T05:42:18.207Z,12.50
2017-09-24T05:44:45.097Z,12.60
2017-09-24T05:47:11.296Z,12.60
2017-09-24T05:49:37.463Z,12.60
2017-09-24T05:52:03.671Z,12.60
2017-09-24T05:54:29.829Z,12.70
2017-09-24T05:56:56.024Z,12.70
2017-09-24T05:59:29.309Z,12.70
2017-09-24T06:01:55.505Z,12.70
2017-09-24T06:04:22.418Z,12.70
2017-09-24T06:06:48.591Z,12.70
2017-09-24T06:09:14.772Z,12.80
2017-09-24T06:11:40.956Z,12.90
2017-09-24T06:14:07.150Z,13.00
2017-09-24T06:16:33.348Z,13.00
2017-09-24T06:18:59.504Z,13.20
2017-09-24T06:21:25.703Z,13.30
2017-09-24T06:23:51.899Z,13.40
2017-09-24T06:26:18.065Z,13.40
2017-09-24T06:28:44.255Z,13.40
2017-09-24T06:31:10.407Z,13.40
2017-09-24T06:33:36.596Z,13.40
2017-09-24T06:36:02.759Z,13.40
2017-09-24T06:38:28.972Z,13.50
2017-09-24T06:40:55.142Z,13.50
2017-09-24T06:43:22.074Z,13.50
2017-09-24T06:45:48.985Z,13.50
2017-09-24T06:48:15.183Z,13.50
2017-09-24T06:50:41.363Z,13.70
2017-09-24T06:53:07.721Z,13.80
2017-09-24T06:55:33.883Z,13.80
2017-09-24T06:58:00.072Z,13.90
2017-09-24T07:00:26.988Z,13.90
2017-09-24T07:02:53.192Z,13.90
2017-09-24T07:05:19.379Z,13.80
2017-09-24T07:07:45.572Z,13.90
2017-09-24T07:10:11.729Z,13.80
2017-09-24T07:12:37.925Z,13.80
2017-09-24T07:15:04.079Z,13.80
2017-09-24T07:17:30.250Z,13.80
2017-09-24T07:19:56.475Z,13.80
2017-09-24T07:22:25.468Z,13.50
2017-09-24T07:24:52.382Z,13.50
2017-09-24T07:27:18.567Z,13.50
2017-09-24T07:29:44.747Z,13.50
2017-09-24T07:32:10.933Z,13.60
2017-09-24T07:34:37.140Z,13.60
2017-09-24T07:37:03.327Z,13.50
2017-09-24T07:39:29.564Z,13.50
2017-09-24T07:41:55.760Z,13.50
2017-09-24T07:44:21.952Z,13.30
2017-09-24T07:46:48.861Z,13.50
2017-09-24T07:49:15.790Z,13.60
2017-09-24T07:51:42.047Z,13.50
2017-09-24T07:54:08.236Z,13.60
2017-09-24T07:56:35.144Z,13.60
2017-09-24T07:59:01.334Z,13.60
2017-09-24T08:01:27.539Z,13.60
2017-09-24T08:03:53.743Z,13.40
2017-09-24T08:06:19.934Z,13.40
2017-09-24T08:08:46.159Z,13.60
2017-09-24T08:11:12.656Z,13.60
2017-09-24T08:13:39.629Z,13.60
2017-09-24T08:16:05.790Z,13.60
2017-09-24T08:18:31.976Z,13.60
2017-09-24T08:20:58.216Z,13.50
2017-09-24T08:23:24.502Z,13.50
2017-09-24T08:25:50.685Z,13.60
2017-09-24T08:28:16.900Z,13.60
2017-09-24T08:30:43.901Z,13.60
2017-09-24T08:33:10.852Z,13.50
2017-09-24T08:35:37.023Z,13.40
2017-09-24T08:38:03.260Z,13.50
2017-09-24T08:40:30.271Z,13.50
2017-09-24T08:42:56.452Z,13.50
2017-09-24T08:45:22.654Z,13.50
2017-09-24T08:47:48.864Z,13.50
2017-09-24T08:50:15.127Z,13.50
2017-09-24T08:52:41.304Z,13.50
2017-09-24T08:55:07.517Z,13.60
2017-09-24T08:57:33.717Z,13.60
2017-09-24T09:00:00.653Z,13.70
2017-09-24T09:02:26.837Z,13.70
2017-09-24T09:04:53.033Z,13.70
2017-09-24T09:07:19.213Z,13.60
2017-09-24T09:09:45.400Z,13.70
2017-09-24T09:12:12.297Z,13.70
2017-09-24T09:14:38.495Z,13.60
2017-09-24T09:17:05.421Z,13.80
2017-09-24T09:19:31.629Z,13.80
2017-09-24T09:21:57.808Z,13.70
2017-09-24T09:24:24.724Z,14.00
2017-09-24T09:26:51.645Z,14.00
2017-09-24T09:29:17.837Z,14.00
2017-09-24T09:31:44.012Z,14.00
2017-09-24T09:34:22.625Z,14.00
2017-09-24T09:36:48.786Z,14.00
2017-09-24T09:39:14.951Z,13.90
2017-09-24T09:41:41.156Z,13.80
2017-09-24T09:44:19.627Z,13.80
2017-09-24T09:49:48.406Z,13.90
2017-09-24T09:52:15.328Z,14.10
2017-09-24T09:54:41.528Z,14.00
2017-09-24T09:57:07.744Z,14.00
2017-09-24T09:59:33.973Z,14.00
2017-09-24T10:02:00.157Z,14.00
2017-09-24T10:04:27.068Z,14.00
2017-09-24T10:07:05.380Z,14.00
2017-09-24T10:09:43.793Z,14.00
2017-09-24T10:12:09.993Z,14.00
2017-09-24T10:14:36.254Z,14.10
2017-09-24T10:17:02.479Z,14.20
2017-09-24T10:19:28.676Z,14.10
2017-09-24T10:21:54.877Z,14.20
2017-09-24T10:24:21.825Z,14.30
2017-09-24T10:26:48.777Z,14.40
2017-09-24T10:29:33.857Z,14.40
2017-09-24T10:32:01.166Z,14.50
2017-09-24T10:34:27.361Z,14.40
2017-09-24T10:36:53.578Z,14.30
2017-09-24T10:39:19.760Z,14.40
2017-09-24T10:41:46.702Z,14.40
2017-09-24T10:44:12.874Z,14.40
2017-09-24T10:46:39.101Z,14.40
2017-09-24T10:49:05.277Z,14.40
2017-09-24T10:51:31.496Z,14.40
2017-09-24T10:53:57.721Z,14.50
2017-09-24T10:56:23.938Z,14.50
2017-09-24T10:58:50.116Z,14.60
2017-09-24T11:01:17.052Z,14.60
2017-09-24T11:03:43.965Z,14.60
2017-09-24T11:06:10.190Z,14.60
2017-09-24T11:08:36.369Z,14.70
2017-09-24T11:11:02.591Z,14.70
2017-09-24T11:13:28.776Z,14.70
2017-09-24T11:15:55.057Z,14.70
2017-09-24T11:18:21.261Z,14.80
2017-09-24T11:20:48.304Z,14.90
2017-09-24T11:23:15.225Z,14.90
2017-09-24T11:25:41.526Z,14.90
2017-09-24T11:28:07.716Z,15.00
2017-09-24T11:30:34.642Z,15.10
2017-09-24T11:33:00.845Z,15.00
2017-09-24T11:35:27.029Z,15.10
2017-09-24T11:37:53.228Z,15.00
2017-09-24T11:40:19.397Z,15.10
2017-09-24T11:42:45.602Z,15.20
2017-09-24T11:45:11.782Z,15.10
2017-09-24T11:47:38.029Z,15.10
2017-09-24T11:50:04.242Z,15.20
2017-09-24T11:52:30.445Z,15.00
2017-09-24T11:54:56.616Z,15.00
2017-09-24T11:57:22.813Z,15.10
2017-09-24T11:59:48.997Z,15.10
2017-09-24T12:02:15.936Z,15.10
2017-09-24T12:04:42.861Z,15.20
2017-09-24T12:07:09.070Z,15.10
2017-09-24T12:09:35.265Z,15.30
2017-09-24T12:12:01.495Z,15.20
2017-09-24T12:14:27.674Z,15.20
2017-09-24T12:16:53.890Z,15.10
2017-09-24T12:19:20.093Z,15.20
2017-09-24T12:21:46.284Z,15.20
2017-09-24T12:24:12.493Z,15.10
2017-09-24T12:26:39.418Z,15.20
2017-09-24T12:29:05.633Z,15.20
2017-09-24T12:31:31.820Z,15.30
2017-09-24T12:33:58.017Z,15.30
2017-09-24T12:36:25.096Z,15.30
2017-09-24T12:38:51.300Z,15.30
2017-09-24T12:41:18.222Z,15.30
2017-09-24T12:43:44.429Z,15.30
2017-09-24T12:46:10.613Z,15.30
2017-09-24T12:48:36.832Z,15.50
2017-09-24T12:51:03.773Z,15.50
2017-09-24T12:53:30.709Z,15.70
2017-09-24T12:55:56.893Z,15.70
2017-09-24T12:58:23.097Z,15.70
2017-09-24T13:00:49.290Z,15.90
2017-09-24T13:03:15.490Z,15.80
2017-09-24T13:05:41.680Z,15.90
2017-09-24T13:08:07.881Z,15.80
2017-09-24T13:10:34.809Z,16.00
2017-09-24T13:13:01.029Z,15.90
2017-09-24T13:15:27.209Z,16.00
2017-09-24T13:17:53.440Z,16.00
2017-09-24T13:20:19.697Z,16.10
2017-09-24T13:22:45.885Z,16.10
2017-09-24T13:25:12.086Z,16.20
2017-09-24T13:27:38.997Z,16.30
2017-09-24T13:30:05.210Z,16.30
2017-09-24T13:32:31.389Z,16.40
2017-09-24T13:34:58.365Z,16.60
2017-09-24T13:37:24.533Z,16.60
2017-09-24T13:39:50.739Z,16.60
2017-09-24T13:42:16.940Z,16.70
2017-09-24T13:44:43.158Z,16.80
2017-09-24T13:47:10.098Z,16.70
2017-09-24T13:49:37.074Z,16.70
2017-09-24T13:52:03.293Z,16.70
2017-09-24T13:54:29.520Z,16.40
2017-09-24T13:56:55.704Z,16.20
2017-09-24T13:59:21.926Z,16.30
2017-09-24T14:01:48.110Z,16.40
2017-09-24T14:04:14.300Z,16.30
2017-09-24T14:06:41.249Z,16.40
2017-09-24T14:09:08.168Z,16.50
2017-09-24T14:11:34.368Z,16.50
2017-09-24T14:14:00.545Z,16.60
2017-09-24T14:16:27.556Z,16.60
2017-09-24T14:18:53.804Z,16.60
2017-09-24T14:21:20.013Z,16.60
2017-09-24T14:23:46.201Z,16.70
2017-09-24T14:26:12.424Z,16.80
2017-09-24T14:28:38.600Z,17.30
2017-09-24T14:31:05.577Z,18.70
2017-09-24T14:33:32.528Z,18.90
2017-09-24T14:35:59.480Z,19.00
2017-09-24T14:38:26.388Z,18.90
2017-09-24T14:40:52.597Z,18.90
2017-09-24T14:43:18.792Z,18.70
2017-09-24T14:45:44.984Z,18.60
2017-09-24T14:48:11.156Z,18.60
2017-09-24T14:50:37.358Z,18.50
2017-09-24T14:53:04.281Z,18.00
2017-09-24T14:55:30.493Z,18.00
2017-09-24T14:57:56.700Z,18.00
2017-09-24T15:00:22.905Z,18.00
2017-09-24T15:02:49.093Z,18.00
2017-09-24T15:05:15.320Z,18.00
2017-09-24T15:07:41.513Z,17.90
2017-09-24T15:10:07.760Z,17.90
2017-09-24T15:12:33.960Z,18.00
2017-09-24T15:15:00.168Z,18.00
2017-09-24T15:17:26.509Z,18.00
2017-09-24T15:19:52.738Z,17.90
2017-09-24T15:22:18.957Z,17.70
2017-09-24T15:24:45.210Z,17.60
2017-09-24T15:27:11.412Z,17.70
2017-09-24T15:29:37.681Z,17.40
2017-09-24T15:32:04.637Z,17.50
2017-09-24T15:34:30.836Z,17.50
2017-09-24T15:36:57.037Z,17.30
2017-09-24T15:39:23.213Z,17.20
2017-09-24T15:41:49.441Z,17.20
2017-09-24T15:44:15.664Z,17.20
2017-09-24T15:46:42.605Z,17.30
2017-09-24T15:49:08.792Z,17.30
2017-09-24T15:51:35.003Z,17.30
2017-09-24T15:54:01.924Z,17.20
2017-09-24T15:56:28.137Z,17.10
2017-09-24T15:58:54.322Z,17.20
2017-09-24T16:01:20.544Z,17.30
2017-09-24T16:03:47.461Z,17.30
2017-09-24T16:06:13.675Z,17.20
2017-09-24T16:08:39.873Z,17.20
2017-09-24T16:11:06.090Z,17.20
2017-09-24T16:13:32.304Z,16.90
2017-09-24T16:15:58.508Z,16.90
2017-09-24T16:18:25.541Z,17.00
2017-09-24T16:20:51.769Z,17.00
2017-09-24T16:23:17.990Z,17.00
2017-09-24T16:25:44.177Z,17.10
2017-09-24T16:28:10.380Z,17.10
2017-09-24T16:30:37.323Z,17.10
2017-09-24T16:33:04.269Z,17.10
2017-09-24T16:35:30.449Z,17.10
2017-09-24T16:37:56.651Z,17.10
2017-09-24T16:40:22.838Z,17.00
2017-09-24T16:42:49.817Z,16.90
2017-09-24T16:45:15.994Z,16.90
2017-09-24T16:47:42.201Z,16.90
2017-09-24T16:50:08.389Z,16.80
2017-09-24T16:52:34.561Z,16.70
2017-09-24T16:55:00.776Z,16.80
2017-09-24T16:57:26.973Z,16.80
2017-09-24T16:59:53.189Z,16.80
2017-09-24T17:02:20.131Z,16.50
2017-09-24T17:04:47.096Z,16.40
2017-09-24T17:07:13.278Z,16.40
2017-09-24T17:09:39.552Z,16.40
2017-09-24T17:12:05.757Z,16.30
2017-09-24T17:14:32.697Z,16.30
2017-09-24T17:16:59.617Z,16.20
2017-09-24T17:19:25.840Z,16.20
2017-09-24T17:21:52.333Z,16.20
2017-09-24T17:24:18.545Z,16.20
2017-09-24T17:26:45.469Z,16.10
2017-09-24T17:29:11.665Z,16.10
2017-09-24T17:31:37.840Z,16.10
2017-09-24T17:34:04.801Z,16.10
2017-09-24T17:36:30.976Z,16.10
2017-09-24T17:38:57.569Z,16.10
2017-09-24T17:41:23.756Z,16.10
2017-09-24T17:43:49.934Z,16.10
2017-09-24T17:46:16.133Z,16.10
2017-09-24T17:48:43.065Z,16.00
2017-09-24T17:51:10.035Z,15.90
2017-09-24T17:53:36.232Z,15.90
2017-09-24T17:56:03.205Z,15.80
2017-09-24T17:58:29.402Z,15.80
2017-09-24T18:00:55.633Z,15.80
2017-09-24T18:03:21.826Z,15.80
2017-09-24T18:05:48.026Z,15.80
2017-09-24T18:08:14.204Z,15.70
2017-09-24T18:10:40.409Z,15.60
2017-09-24T18:13:07.333Z,15.40
2017-09-24T18:15:33.533Z,15.40
2017-09-24T18:17:59.761Z,15.40
2017-09-24T18:20:26.716Z,15.40
2017-09-24T18:22:52.993Z,15.30
2017-09-24T18:25:19.197Z,15.30
2017-09-24T18:27:45.373Z,15.30
2017-09-24T18:30:11.581Z,15.20
2017-09-24T18:32:37.745Z,15.20
2017-09-24T18:35:04.697Z,15.00
2017-09-24T18:37:30.871Z,15.00
2017-09-24T18:39:57.069Z,15.00
2017-09-24T18:42:23.301Z,15.00
2017-09-24T18:44:49.504Z,15.10
2017-09-24T18:47:16.429Z,15.00
2017-09-24T18:49:42.630Z,15.00
2017-09-24T18:52:08.805Z,15.00
2017-09-24T18:54:35.021Z,15.00
2017-09-24T18:57:02.753Z,14.90
2017-09-24T18:59:29.769Z,14.90
2017-09-24T19:01:55.965Z,14.90
2017-09-24T19:04:22.884Z,14.90
2017-09-24T19:06:49.080Z,14.80
2017-09-24T19:09:15.253Z,14.90
2017-09-24T19:11:42.193Z,14.90
2017-09-24T19:14:08.374Z,14.90
2017-09-24T19:16:34.577Z,14.90
2017-09-24T19:19:00.770Z,14.90
2017-09-24T19:21:27.022Z,15.00
2017-09-24T19:23:53.223Z,15.00
2017-09-24T19:26:19.482Z,15.10
2017-09-24T19:28:46.393Z,15.10
2017-09-24T19:31:12.579Z,15.00
2017-09-24T19:33:38.816Z,15.00
2017-09-24T19:36:05.025Z,15.10
2017-09-24T19:38:31.225Z,15.10
2017-09-24T19:40:58.178Z,15.00
2017-09-24T19:43:25.132Z,15.00
2017-09-24T19:45:51.328Z,14.90
2017-09-24T19:48:17.593Z,14.80
2017-09-24T19:50:43.780Z,14.70
2017-09-24T19:53:09.993Z,14.70
2017-09-24T19:55:36.195Z,14.80
2017-09-24T19:58:02.398Z,14.90
2017-09-24T20:00:28.638Z,14.90
2017-09-24T20:03:02.644Z,14.80
2017-09-24T20:05:28.826Z,14.80
2017-09-24T20:07:55.011Z,14.70
2017-09-24T20:10:21.213Z,14.80
2017-09-24T20:12:48.136Z,14.70
2017-09-24T20:15:14.357Z,14.70
2017-09-24T20:17:40.538Z,14.60
2017-09-24T20:20:06.817Z,14.70
2017-09-24T20:22:32.997Z,14.70
2017-09-24T20:24:59.181Z,14.70
2017-09-24T20:27:26.175Z,14.80
2017-09-24T20:29:52.352Z,14.70
2017-09-24T20:32:19.301Z,14.80
2017-09-24T20:34:46.240Z,14.70
2017-09-24T20:37:13.217Z,14.80
2017-09-24T20:39:39.393Z,14.70
2017-09-24T20:42:05.605Z,14.80
2017-09-24T20:44:31.789Z,14.80
2017-09-24T20:46:58.749Z,14.70
2017-09-24T20:49:24.921Z,14.70
2017-09-24T20:51:51.121Z,14.60
2017-09-24T20:54:17.313Z,14.60
2017-09-24T20:56:44.245Z,14.40
2017-09-24T20:59:11.165Z,14.40
2017-09-24T21:01:37.386Z,14.40
2017-09-24T21:04:03.569Z,14.40
2017-09-24T21:06:29.762Z,14.50
2017-09-24T21:08:55.941Z,14.40
2017-09-24T21:11:22.138Z,14.50
2017-09-24T21:13:49.052Z,14.60
2017-09-24T21:16:15.253Z,14.50
2017-09-24T21:18:41.429Z,14.60
2017-09-24T21:21:08.416Z,14.70
2017-09-24T21:23:34.602Z,14.70
2017-09-24T21:26:01.546Z,14.70
2017-09-24T21:28:28.466Z,14.80
2017-09-24T21:30:54.672Z,14.70
2017-09-24T21:33:20.846Z,14.70
2017-09-24T21:35:47.796Z,14.70
2017-09-24T21:38:14.704Z,14.70
2017-09-24T21:40:40.885Z,14.70
2017-09-24T21:43:07.081Z,14.60
2017-09-24T21:45:33.285Z,14.50
2017-09-24T21:47:59.488Z,14.60
2017-09-24T21:50:25.689Z,14.50
2017-09-24T21:52:51.874Z,14.60
2017-09-24T21:55:18.117Z,14.50
2017-09-24T21:57:44.405Z,14.50
2017-09-24T22:00:10.581Z,14.60
2017-09-24T22:02:37.522Z,14.60
2017-09-24T22:05:03.717Z,14.60
2017-09-24T22:07:29.928Z,14.50
2017-09-24T22:09:56.104Z,14.50
2017-09-24T22:12:22.306Z,14.30
2017-09-24T22:14:48.509Z,14.30
2017-09-24T22:17:14.737Z,14.30
2017-09-24T22:19:40.930Z,14.20
2017-09-24T22:22:07.945Z,14.10
2017-09-24T22:24:34.141Z,14.00
2017-09-24T22:27:00.335Z,14.10
2017-09-24T22:29:27.288Z,14.10
2017-09-24T22:31:53.518Z,14.10
2017-09-24T22:34:19.755Z,14.10
2017-09-24T22:36:45.940Z,14.10
2017-09-24T22:39:12.141Z,14.10
2017-09-24T22:41:38.340Z,14.10
2017-09-24T22:44:04.554Z,14.10
2017-09-24T22:46:30.730Z,14.10
2017-09-24T22:48:56.941Z,14.10
2017-09-24T22:51:23.149Z,14.10
2017-09-24T22:53:49.356Z,14.10
2017-09-24T22:56:16.654Z,14.00
2017-09-24T22:58:42.865Z,14.00
2017-09-24T23:01:09.049Z,14.00
2017-09-24T23:03:35.998Z,14.00
2017-09-24T23:06:02.920Z,13.90
2017-09-24T23:08:29.130Z,13.90
2017-09-24T23:10:55.321Z,13.90
2017-09-24T23:13:21.525Z,13.90
2017-09-24T23:15:48.469Z,14.00
2017-09-24T23:18:15.489Z,14.00
2017-09-24T23:20:41.704Z,14.00
2017-09-24T23:23:07.922Z,14.10
2017-09-24T23:25:41.106Z,14.10
2017-09-24T23:28:07.321Z,14.10
2017-09-24T23:30:33.512Z,14.20
2017-09-24T23:32:59.717Z,14.20
2017-09-24T23:35:25.905Z,14.20
2017-09-24T23:37:52.127Z,14.20
2017-09-24T23:40:18.321Z,14.10
2017-09-24T23:42:44.503Z,14.20
2017-09-24T23:45:10.708Z,14.10
2017-09-24T23:47:37.641Z,14.20
2017-09-24T23:50:04.594Z,14.00
2017-09-24T23:52:30.952Z,14.00
2017-09-24T23:54:57.152Z,14.00
2017-09-24T23:57:23.352Z,14.00
2017-09-24T23:59:49.624Z,14.10
